General WM J Fox Airfield Lancaster US
ICAO: KWJF
IATA: WJF
Category: Medium
Scheduled Services: No

Elevation: 2351 ft
TransAlt. 18000 ft.

Airport Communications:
JOSHUA APP/DEP:126.1
ATIS:126.3
AWOS 3:133.875
CTAF:120.3
GND:121.7
RIVERSIDE RDO:122.2
FOX TWR:120.3
UNICOM:122.95

KWJF Zoom In..

If Map Doesn't Load, Click Here

Runways:

(A) RW 06 length 7201 ft width 150 ft
---- / hdg 57

(B) RW 24 length 7201 ft width 150 ft
---- / hdg 237

Location; KWJF
Day. 23 / Time. 07.56 Zulu
* Altimeter: 29.94
* Temperature: 19° c. 66.2°f.
* Wind from: 000° Speed 00 kn.
Dewpoint: 06° c.
Visibility: 10 Statute Miles.
Clouds: Clear (automated report).

KWJF 230756Z AUTO 00000KT 10SM CLR 19/06 A2994 RMK AO2 SLP120 T01940061 403500128


Wind - Calm.

 
 
jpsmedia.com for Web Design worldairports.se 2018   terms of use